Time;durP1;ratioP1;P1;durP2;ratioP2;P2;SDS_P1;SDS_P2;PMS_P1;PMS_P2;Temp;Humidity;BMP_temperature;BMP_pressure;BME280_temperature;BME280_humidity;BME280_pressure;Samples;Min_cycle;Max_cycle;Signal;HPM_P1;HPM_P2
2023/06/12 00:00:51;;;;;;;10.13;3.03;;;19.90;70.00;;;;;;4970898;28;20063;-72
2023/06/12 00:03:19;;;;;;;12.43;3.40;;;19.90;70.20;;;;;;4909045;28;211098;-72
2023/06/12 00:05:46;;;;;;;13.32;3.40;;;19.80;70.40;;;;;;4990466;28;20540;-72
2023/06/12 00:08:13;;;;;;;10.60;3.45;;;19.80;70.80;;;;;;4912940;28;207297;-73
2023/06/12 00:10:42;;;;;;;9.05;3.30;;;19.70;71.40;;;;;;4933353;28;20074;-72
2023/06/12 00:13:09;;;;;;;10.32;3.30;;;19.70;71.00;;;;;;4952890;28;209769;-72
2023/06/12 00:15:35;;;;;;;11.15;3.50;;;19.60;72.20;;;;;;4952859;28;209461;-72
2023/06/12 00:18:02;;;;;;;10.68;3.28;;;19.60;71.70;;;;;;4986204;28;20061;-72
2023/06/12 00:20:29;;;;;;;8.55;3.15;;;19.50;71.80;;;;;;4965733;28;209352;-72
2023/06/12 00:22:56;;;;;;;12.82;3.30;;;19.40;72.10;;;;;;4988033;28;20503;-72
2023/06/12 00:25:22;;;;;;;10.05;3.30;;;19.40;72.60;;;;;;4918079;28;206243;-73
2023/06/12 00:27:48;;;;;;;9.30;3.00;;;19.30;72.80;;;;;;4968103;28;20162;-72
2023/06/12 00:30:15;;;;;;;9.25;3.00;;;19.30;73.00;;;;;;4913252;28;207197;-73
2023/06/12 00:32:41;;;;;;;14.73;3.83;;;19.30;73.80;;;;;;4964030;28;20059;-72
2023/06/12 00:35:08;;;;;;;10.88;3.20;;;19.20;73.60;;;;;;4943586;28;207285;-72
2023/06/12 00:37:34;;;;;;;13.73;3.15;;;19.10;74.20;;;;;;4987030;28;20051;-72
2023/06/12 00:40:00;;;;;;;10.68;3.30;;;19.10;74.20;;;;;;4932359;28;285320;-71
2023/06/12 00:42:33;;;;;;;10.75;2.97;;;19.00;74.20;;;;;;4968506;28;20043;-72
2023/06/12 00:44:59;;;;;;;11.55;3.10;;;19.00;75.20;;;;;;4954273;28;209062;-72
2023/06/12 00:47:26;;;;;;;8.68;3.00;;;18.90;75.00;;;;;;4988482;28;20050;-73
2023/06/12 00:49:52;;;;;;;9.40;3.05;;;18.90;75.20;;;;;;4958010;28;207339;-73
2023/06/12 00:52:21;;;;;;;9.77;3.15;;;18.80;75.50;;;;;;4970157;28;20062;-73
2023/06/12 00:54:50;;;;;;;9.27;3.22;;;18.80;75.60;;;;;;4915571;28;207779;-73
2023/06/12 00:57:16;;;;;;;10.63;3.25;;;18.80;76.20;;;;;;4963915;28;20058;-73
2023/06/12 00:59:42;;;;;;;9.85;3.42;;;18.70;76.40;;;;;;4915510;28;207803;-73
2023/06/12 01:02:09;;;;;;;12.65;3.17;;;18.70;77.00;;;;;;4972770;28;20741;-72
2023/06/12 01:04:37;;;;;;;9.43;3.10;;;18.60;76.80;;;;;;4948997;28;209389;-73
2023/06/12 01:07:13;;;;;;;9.65;3.20;;;18.60;77.80;;;;;;4976525;28;20055;-73
2023/06/12 01:09:42;;;;;;;11.77;3.17;;;18.60;77.60;;;;;;4937623;28;210252;-73
2023/06/12 01:12:11;;;;;;;12.55;3.00;;;18.50;78.20;;;;;;4967229;28;20066;-72
2023/06/12 01:14:37;;;;;;;12.73;3.30;;;18.50;78.50;;;;;;4936511;28;211031;-72
2023/06/12 01:17:04;;;;;;;11.07;3.20;;;18.40;79.00;;;;;;4984497;28;20080;-72
2023/06/12 01:19:30;;;;;;;10.27;3.10;;;18.30;79.10;;;;;;4930891;28;207077;-72
2023/06/12 01:22:03;;;;;;;9.25;2.95;;;18.30;79.40;;;;;;4991318;28;20051;-72
2023/06/12 01:25:06;;;;;;;10.75;3.10;;;18.20;80.20;;;;;;4934554;28;206980;-71
2023/06/12 01:27:57;;;;;;;8.82;2.97;;;18.20;81.10;;;;;;4979941;28;20386;-73
2023/06/12 01:30:46;;;;;;;10.23;2.97;;;18.20;80.60;;;;;;4953031;28;205598;-73
2023/06/12 01:33:20;;;;;;;8.75;2.88;;;18.10;81.60;;;;;;4941632;28;207417;-72
2023/06/12 01:35:50;;;;;;;9.82;3.10;;;18.10;81.40;;;;;;4987870;28;20054;-73
2023/06/12 01:38:21;;;;;;;11.97;3.37;;;18.00;81.70;;;;;;4915559;28;207239;-72
2023/06/12 01:40:48;;;;;;;10.10;3.30;;;18.00;82.20;;;;;;4993022;28;20069;-72
2023/06/12 01:43:15;;;;;;;9.47;3.17;;;18.00;82.80;;;;;;4909321;28;208010;-71
2023/06/12 01:45:41;;;;;;;9.45;3.00;;;17.90;83.10;;;;;;4991809;28;20047;-71
2023/06/12 01:48:08;;;;;;;12.00;3.28;;;17.90;83.50;;;;;;4952775;28;206213;-72
2023/06/12 01:50:34;;;;;;;9.45;3.08;;;17.80;84.10;;;;;;4932746;28;20062;-72
2023/06/12 01:53:01;;;;;;;12.75;3.70;;;17.80;84.60;;;;;;4967673;28;20078;-72
2023/06/12 01:55:27;;;;;;;13.07;3.20;;;17.80;85.00;;;;;;4895155;28;248272;-71
2023/06/12 01:57:53;;;;;;;10.70;3.22;;;17.70;85.00;;;;;;4967686;28;20062;-71
2023/06/12 02:00:20;;;;;;;9.27;3.28;;;17.70;85.50;;;;;;4950446;28;205501;-72
2023/06/12 02:02:46;;;;;;;11.63;2.95;;;17.70;85.80;;;;;;4968029;28;20050;-72
2023/06/12 02:05:12;;;;;;;10.98;3.40;;;17.70;86.60;;;;;;4926991;28;210939;-71
2023/06/12 02:07:38;;;;;;;12.18;3.30;;;17.60;86.80;;;;;;4988839;28;20045;-72
2023/06/12 02:10:07;;;;;;;13.48;3.38;;;17.60;87.10;;;;;;4940891;28;212506;-72
2023/06/12 02:12:33;;;;;;;13.25;3.40;;;17.50;87.20;;;;;;4967219;28;20062;-72
2023/06/12 02:15:00;;;;;;;12.05;3.00;;;17.50;87.70;;;;;;4939536;28;207736;-72
2023/06/12 02:17:26;;;;;;;10.00;3.20;;;17.50;87.90;;;;;;4963465;28;20070;-72
2023/06/12 02:19:52;;;;;;;11.02;3.40;;;17.40;88.50;;;;;;4927642;28;207837;-72
2023/06/12 02:22:18;;;;;;;10.10;3.30;;;17.40;88.90;;;;;;4965795;28;20054;-71
2023/06/12 02:24:46;;;;;;;13.80;3.03;;;17.40;89.50;;;;;;4916702;28;188952;-72
2023/06/12 02:27:12;;;;;;;9.95;3.03;;;17.30;90.10;;;;;;4965288;28;20077;-72
2023/06/12 02:29:38;;;;;;;12.95;3.50;;;17.20;90.10;;;;;;4940008;28;213349;-71
2023/06/12 02:32:04;;;;;;;9.80;3.50;;;17.20;90.30;;;;;;4988257;28;20057;-72
2023/06/12 02:34:30;;;;;;;12.20;3.10;;;17.10;90.60;;;;;;4935741;28;206638;-72
2023/06/12 02:36:58;;;;;;;12.57;3.90;;;17.00;90.80;;;;;;4977007;28;20050;-72
2023/06/12 02:39:24;;;;;;;15.27;3.38;;;17.00;91.30;;;;;;4942102;28;211020;-72
2023/06/12 02:41:50;;;;;;;9.85;3.40;;;16.90;91.60;;;;;;4972932;28;20409;-71
2023/06/12 02:44:16;;;;;;;11.80;3.47;;;16.90;91.60;;;;;;4922801;28;207477;-71
2023/06/12 02:46:51;;;;;;;15.10;3.35;;;16.90;92.00;;;;;;4972093;28;20080;-71
2023/06/12 02:49:19;;;;;;;11.10;3.30;;;16.90;92.10;;;;;;4923339;28;206239;-71
2023/06/12 02:51:45;;;;;;;15.77;3.50;;;16.80;92.40;;;;;;4974106;28;20416;-73
2023/06/12 02:54:12;;;;;;;11.70;3.80;;;16.80;93.00;;;;;;4913071;28;209960;-71
2023/06/12 02:56:41;;;;;;;12.07;3.45;;;16.80;92.90;;;;;;4964724;28;20061;-71
2023/06/12 02:59:26;;;;;;;10.48;3.08;;;16.80;92.90;;;;;;4933077;28;207430;-70
2023/06/12 03:01:52;;;;;;;10.20;3.38;;;16.70;93.10;;;;;;4983865;28;20792;-71
2023/06/12 03:04:20;;;;;;;14.38;3.50;;;16.70;93.00;;;;;;4934819;28;205825;-71
2023/06/12 03:06:48;;;;;;;11.05;3.38;;;16.70;93.20;;;;;;5001657;28;20054;-71
2023/06/12 03:09:18;;;;;;;14.88;3.33;;;16.70;93.30;;;;;;4953187;28;206162;-71
2023/06/12 03:11:44;;;;;;;8.40;2.92;;;16.70;93.40;;;;;;4980515;28;20542;-70
2023/06/12 03:14:12;;;;;;;11.15;3.05;;;16.60;93.40;;;;;;4947898;28;206891;-71
2023/06/12 03:16:39;;;;;;;14.25;3.22;;;16.60;93.50;;;;;;4993389;28;20062;-71
2023/06/12 03:19:06;;;;;;;11.05;3.25;;;16.60;93.70;;;;;;4931897;28;204439;-71
2023/06/12 03:21:32;;;;;;;11.43;3.63;;;16.50;93.70;;;;;;4982094;28;20051;-71
2023/06/12 03:23:59;;;;;;;12.50;3.30;;;16.50;93.90;;;;;;4917131;28;208459;-72
2023/06/12 03:26:27;;;;;;;9.43;3.33;;;16.50;94.00;;;;;;4993515;28;20073;-72
2023/06/12 03:28:53;;;;;;;9.55;3.17;;;16.40;94.20;;;;;;4932689;28;218146;-71
2023/06/12 03:31:20;;;;;;;11.55;3.22;;;16.40;94.70;;;;;;4968709;28;20065;-71
2023/06/12 03:33:46;;;;;;;10.30;3.33;;;16.30;94.80;;;;;;4956114;28;207008;-72
2023/06/12 03:36:12;;;;;;;10.63;3.20;;;16.30;94.90;;;;;;4993106;28;20503;-71
2023/06/12 03:38:38;;;;;;;9.90;3.22;;;16.30;95.10;;;;;;4941582;28;173316;-71
2023/06/12 03:41:05;;;;;;;11.93;3.38;;;16.20;95.10;;;;;;5004536;28;20050;-72
2023/06/12 03:43:31;;;;;;;10.38;3.50;;;16.20;95.20;;;;;;4936911;28;207408;-71
2023/06/12 03:45:57;;;;;;;11.65;3.63;;;16.20;95.30;;;;;;5009474;28;20065;-70
2023/06/12 03:48:23;;;;;;;10.38;3.20;;;16.30;95.40;;;;;;4930154;28;207755;-71
2023/06/12 03:50:49;;;;;;;10.10;3.45;;;16.30;95.50;;;;;;5008771;28;20058;-71
2023/06/12 03:53:15;;;;;;;8.98;3.20;;;16.30;95.60;;;;;;4914764;28;228187;-72
2023/06/12 03:55:42;;;;;;;11.18;3.28;;;16.30;95.80;;;;;;4994797;28;20050;-72
2023/06/12 03:58:08;;;;;;;11.13;3.13;;;16.30;95.70;;;;;;4963413;28;206225;-71
2023/06/12 04:00:34;;;;;;;9.52;2.92;;;16.30;96.00;;;;;;4933376;28;180460;-72
2023/06/12 04:03:01;;;;;;;11.20;3.05;;;16.40;96.10;;;;;;4985929;28;20062;-71
2023/06/12 04:05:27;;;;;;;14.18;3.45;;;16.40;96.10;;;;;;4926045;28;204634;-72
2023/06/12 04:07:53;;;;;;;11.55;3.38;;;16.40;96.20;;;;;;4980292;28;20073;-71
2023/06/12 04:10:19;;;;;;;9.57;3.40;;;16.40;96.30;;;;;;4944969;28;206379;-71
2023/06/12 04:12:45;;;;;;;11.10;3.35;;;16.50;96.50;;;;;;4982967;28;20054;-71
2023/06/12 04:15:11;;;;;;;10.55;3.55;;;16.50;96.60;;;;;;4928471;28;209558;-71
2023/06/12 04:17:38;;;;;;;10.80;3.65;;;16.50;96.70;;;;;;4961028;28;20058;-71
2023/06/12 04:20:06;;;;;;;10.73;3.42;;;16.50;96.70;;;;;;4908031;28;217430;-71
2023/06/12 04:22:32;;;;;;;11.23;3.58;;;16.60;97.10;;;;;;4968242;28;20058;-71
2023/06/12 04:25:01;;;;;;;11.95;3.80;;;16.60;97.20;;;;;;4936353;28;210637;-70
2023/06/12 04:27:29;;;;;;;14.05;3.40;;;16.60;97.30;;;;;;4983680;28;20054;-71
2023/06/12 04:29:57;;;;;;;10.68;3.60;;;16.70;97.30;;;;;;4948815;28;208682;-70
2023/06/12 04:32:23;;;;;;;11.68;3.60;;;16.70;97.30;;;;;;4967600;28;20544;-71
2023/06/12 04:34:50;;;;;;;16.27;3.92;;;16.70;97.40;;;;;;4899020;28;206248;-71
2023/06/12 04:37:18;;;;;;;9.93;3.70;;;16.80;97.40;;;;;;4963674;28;20325;-71
2023/06/12 04:39:48;;;;;;;14.05;3.60;;;16.80;97.60;;;;;;4944066;28;209463;-71
2023/06/12 04:42:16;;;;;;;11.50;3.33;;;16.90;97.60;;;;;;4986967;28;20050;-71
2023/06/12 04:44:46;;;;;;;9.13;3.38;;;17.00;97.50;;;;;;4955743;28;208611;-71
2023/06/12 04:47:14;;;;;;;14.95;3.67;;;17.00;97.70;;;;;;4990491;28;20061;-71
2023/06/12 04:49:43;;;;;;;9.50;3.53;;;17.10;97.80;;;;;;4942302;28;212254;-71
2023/06/12 04:52:09;;;;;;;12.73;3.60;;;17.10;97.90;;;;;;4972778;28;20058;-70
2023/06/12 04:54:35;;;;;;;12.10;3.60;;;17.20;98.00;;;;;;4939523;28;213219;-71
2023/06/12 04:57:12;;;;;;;10.65;3.75;;;17.20;98.00;;;;;;4985886;28;20050;-71
2023/06/12 04:59:42;;;;;;;11.20;3.42;;;17.30;98.00;;;;;;4944587;28;215743;-71
2023/06/12 05:02:08;;;;;;;14.45;3.90;;;17.40;97.90;;;;;;4970717;28;20543;-71
2023/06/12 05:04:36;;;;;;;11.18;3.70;;;17.40;98.10;;;;;;4908107;28;209804;-71
2023/06/12 05:07:06;;;;;;;11.45;3.47;;;17.50;98.10;;;;;;4946546;28;20051;-71
2023/06/12 05:09:32;;;;;;;11.50;3.85;;;17.50;98.00;;;;;;4930119;28;211979;-71
2023/06/12 05:12:00;;;;;;;9.55;3.40;;;17.60;98.20;;;;;;4982158;28;20065;-71
2023/06/12 05:14:27;;;;;;;12.55;3.60;;;17.70;98.10;;;;;;4935042;28;206283;-71
2023/06/12 05:16:55;;;;;;;11.48;3.78;;;17.80;98.10;;;;;;4975321;28;20067;-71
2023/06/12 05:19:21;;;;;;;11.20;3.90;;;17.80;98.10;;;;;;4936765;28;211660;-71
2023/06/12 05:21:49;;;;;;;14.80;3.95;;;17.90;98.20;;;;;;4974656;28;20058;-71
2023/06/12 05:24:15;;;;;;;13.88;4.18;;;18.00;98.20;;;;;;4920443;28;221935;-72
2023/06/12 05:26:41;;;;;;;12.40;3.67;;;18.10;98.20;;;;;;4978369;28;20047;-72
2023/06/12 05:29:07;;;;;;;12.70;3.83;;;18.20;98.20;;;;;;4927794;28;207804;-72
2023/06/12 05:31:34;;;;;;;15.07;4.03;;;18.40;98.20;;;;;;4995722;28;20054;-71
2023/06/12 05:34:00;;;;;;;9.45;3.78;;;18.50;98.10;;;;;;4928503;28;230799;-70
2023/06/12 05:36:26;;;;;;;11.88;3.85;;;18.60;98.00;;;;;;4964614;28;20051;-71
2023/06/12 05:38:52;;;;;;;14.52;4.20;;;18.60;97.90;;;;;;4924911;28;208864;-72
2023/06/12 05:41:18;;;;;;;11.70;3.92;;;18.70;98.10;;;;;;4980315;28;20055;-72
2023/06/12 05:43:46;;;;;;;11.73;4.00;;;18.90;97.80;;;;;;4919527;28;166884;-71
2023/06/12 05:46:13;;;;;;;13.20;3.95;;;19.10;97.80;;;;;;4980359;28;20058;-71
2023/06/12 05:48:39;;;;;;;10.55;3.88;;;19.30;97.50;;;;;;4942074;28;219145;-71
2023/06/12 05:51:07;;;;;;;15.02;4.05;;;19.50;97.40;;;;;;4978752;28;20065;-71
2023/06/12 05:53:34;;;;;;;12.48;3.50;;;19.70;97.10;;;;;;4913227;28;208094;-72
2023/06/12 05:56:00;;;;;;;9.70;3.33;;;19.90;97.00;;;;;;4965891;28;20152;-71
2023/06/12 05:58:27;;;;;;;12.13;3.90;;;20.20;97.00;;;;;;4925545;28;207125;-71
2023/06/12 06:00:53;;;;;;;13.30;3.65;;;20.40;96.70;;;;;;4996288;28;20533;-70
2023/06/12 06:03:20;;;;;;;11.77;3.97;;;20.70;96.40;;;;;;4936611;28;211334;-72
2023/06/12 06:05:46;;;;;;;10.85;3.63;;;21.00;96.20;;;;;;5016366;28;20050;-71
2023/06/12 06:08:12;;;;;;;11.98;3.80;;;21.20;95.80;;;;;;4958101;28;233135;-71
2023/06/12 06:10:38;;;;;;;14.95;4.10;;;21.40;95.80;;;;;;5009101;28;20046;-71
2023/06/12 06:13:05;;;;;;;11.43;4.10;;;21.60;95.60;;;;;;4996286;28;20764;-70
2023/06/12 06:15:31;;;;;;;14.60;3.97;;;21.80;95.20;;;;;;4971158;28;78161;-70
2023/06/12 06:17:57;;;;;;;10.93;3.60;;;22.10;95.00;;;;;;4987494;28;20058;-71
2023/06/12 06:20:23;;;;;;;13.85;4.00;;;22.30;94.60;;;;;;4960583;28;259512;-70
2023/06/12 06:22:50;;;;;;;16.02;3.95;;;22.40;94.50;;;;;;4995649;28;20061;-70
2023/06/12 06:25:17;;;;;;;14.18;3.85;;;22.50;94.30;;;;;;4932591;28;206089;-71
2023/06/12 06:27:43;;;;;;;11.77;3.75;;;22.70;94.20;;;;;;4973683;28;20058;-70
2023/06/12 06:30:10;;;;;;;10.95;3.63;;;22.80;93.90;;;;;;4928615;28;207596;-70
2023/06/12 06:32:36;;;;;;;11.77;3.85;;;23.00;93.60;;;;;;4966400;28;20412;-70
2023/06/12 06:35:03;;;;;;;11.73;3.60;;;23.30;93.40;;;;;;4948184;28;214016;-71
2023/06/12 06:37:29;;;;;;;15.48;4.13;;;23.50;93.30;;;;;;4963963;28;20059;-71
2023/06/12 06:39:55;;;;;;;11.43;3.40;;;23.80;93.10;;;;;;4930443;28;207623;-71
2023/06/12 06:42:21;;;;;;;13.35;4.20;;;24.00;93.10;;;;;;4967979;28;20440;-71
2023/06/12 06:44:49;;;;;;;13.82;3.85;;;24.20;92.90;;;;;;4938693;28;212445;-71
2023/06/12 06:47:15;;;;;;;13.00;3.85;;;24.40;92.40;;;;;;4968804;28;20074;-70
2023/06/12 06:49:41;;;;;;;15.18;4.15;;;24.60;92.10;;;;;;4926638;28;215727;-70
2023/06/12 06:52:07;;;;;;;9.00;3.50;;;24.60;92.30;;;;;;4977389;28;20059;-69
2023/06/12 06:54:33;;;;;;;9.70;3.63;;;24.50;92.10;;;;;;4939640;28;208313;-71
2023/06/12 06:57:02;;;;;;;12.45;4.18;;;24.50;91.90;;;;;;4985775;28;20058;-71
2023/06/12 06:59:28;;;;;;;12.43;3.83;;;24.70;91.80;;;;;;4949431;28;206478;-70
2023/06/12 07:01:54;;;;;;;11.25;3.50;;;24.90;91.40;;;;;;4993317;28;20061;-71
2023/06/12 07:04:21;;;;;;;11.25;3.80;;;25.10;91.50;;;;;;4925895;28;216332;-71
2023/06/12 07:06:47;;;;;;;12.13;4.03;;;25.40;91.30;;;;;;4977735;28;20077;-70
2023/06/12 07:09:14;;;;;;;13.70;3.70;;;25.40;90.80;;;;;;4918841;28;331771;-70
2023/06/12 07:11:40;;;;;;;10.93;3.53;;;25.60;91.00;;;;;;4979018;28;20046;-71
2023/06/12 07:14:06;;;;;;;15.43;4.07;;;25.80;90.90;;;;;;4931292;28;212362;-71
2023/06/12 07:16:32;;;;;;;11.70;4.00;;;26.10;90.70;;;;;;4976825;28;20416;-71
2023/06/12 07:18:58;;;;;;;13.23;3.55;;;26.10;90.50;;;;;;4923378;28;218685;-71
2023/06/12 07:21:26;;;;;;;11.65;3.83;;;26.20;90.20;;;;;;4971686;28;20059;-71
2023/06/12 07:23:52;;;;;;;10.30;4.03;;;26.50;89.80;;;;;;4923882;28;200801;-70
2023/06/12 07:26:19;;;;;;;12.93;4.00;;;27.00;89.30;;;;;;4968952;28;20046;-71
2023/06/12 07:28:45;;;;;;;13.80;3.75;;;27.40;88.70;;;;;;4917243;28;209339;-71
2023/06/12 07:31:11;;;;;;;11.00;4.10;;;27.40;87.40;;;;;;5002188;28;20423;-71
2023/06/12 07:33:37;;;;;;;12.02;4.20;;;27.30;88.20;;;;;;4930415;28;210861;-71
2023/06/12 07:36:03;;;;;;;10.40;3.60;;;27.30;87.30;;;;;;4976445;28;20121;-71
2023/06/12 07:38:29;;;;;;;13.90;4.17;;;27.20;87.30;;;;;;4911514;28;215288;-71
2023/06/12 07:40:55;;;;;;;10.23;3.75;;;27.10;87.90;;;;;;4973807;28;20089;-71
2023/06/12 07:43:21;;;;;;;9.52;3.88;;;27.10;87.60;;;;;;4918196;28;206988;-71
2023/06/12 07:45:47;;;;;;;14.88;3.95;;;27.20;87.50;;;;;;4997853;28;20031;-72
2023/06/12 07:48:14;;;;;;;12.47;3.73;;;27.60;86.20;;;;;;4917956;28;207655;-72
2023/06/12 07:50:42;;;;;;;10.90;3.97;;;27.90;86.10;;;;;;5013731;28;20050;-72
2023/06/12 07:53:08;;;;;;;12.40;3.72;;;28.10;85.40;;;;;;4964067;28;209283;-71
2023/06/12 07:55:35;;;;;;;12.02;3.92;;;28.20;85.70;;;;;;4970373;28;147884;-72
2023/06/12 07:58:01;;;;;;;11.98;4.00;;;28.30;84.80;;;;;;4984812;28;20516;-72
2023/06/12 08:00:27;;;;;;;16.88;4.28;;;28.50;85.30;;;;;;4962405;28;207115;-72
2023/06/12 08:03:00;;;;;;;10.55;4.00;;;28.90;85.00;;;;;;4982440;28;20054;-72
2023/06/12 08:05:26;;;;;;;16.80;4.00;;;29.20;84.60;;;;;;4935071;28;207270;-71
2023/06/12 08:07:53;;;;;;;13.30;3.92;;;29.40;83.80;;;;;;4963449;28;20066;-71
2023/06/12 08:10:19;;;;;;;11.98;4.18;;;29.40;84.20;;;;;;4934203;28;68822;-68
2023/06/12 08:12:45;;;;;;;12.65;4.07;;;29.60;83.60;;;;;;4966742;28;20500;-69
2023/06/12 08:15:13;;;;;;;13.85;4.00;;;29.50;82.80;;;;;;4936256;28;218102;-70
2023/06/12 08:17:42;;;;;;;11.30;4.07;;;29.70;83.30;;;;;;4970182;28;20051;-70
2023/06/12 08:20:10;;;;;;;13.52;4.20;;;29.80;82.60;;;;;;4929663;28;214432;-69
2023/06/12 08:22:37;;;;;;;12.93;4.32;;;30.00;82.00;;;;;;4984101;28;20069;-70
2023/06/12 08:25:04;;;;;;;10.45;4.20;;;30.00;81.60;;;;;;4935519;28;211071;-70
2023/06/12 08:27:30;;;;;;;11.68;4.35;;;30.30;82.10;;;;;;4987245;28;20042;-71
2023/06/12 08:29:56;;;;;;;13.18;4.07;;;30.40;81.10;;;;;;4932442;28;212687;-71
2023/06/12 08:32:22;;;;;;;10.90;3.88;;;30.60;81.00;;;;;;4967138;28;20061;-71
2023/06/12 08:34:48;;;;;;;12.77;3.88;;;30.80;80.70;;;;;;4921937;28;207312;-70
2023/06/12 08:37:14;;;;;;;12.50;3.80;;;31.00;79.90;;;;;;4971696;28;20066;-71
2023/06/12 08:39:40;;;;;;;11.20;3.90;;;31.00;79.50;;;;;;4943607;28;207544;-71
2023/06/12 08:42:14;;;;;;;10.95;3.60;;;31.10;78.60;;;;;;4972840;28;20050;-71
2023/06/12 08:44:44;;;;;;;11.10;4.03;;;31.30;78.10;;;;;;4921224;28;214324;-70
2023/06/12 08:47:11;;;;;;;11.93;3.78;;;31.40;78.30;;;;;;4972572;28;20050;-70
2023/06/12 08:49:37;;;;;;;10.32;3.38;;;31.40;77.50;;;;;;4930504;28;212699;-70
2023/06/12 08:52:06;;;;;;;12.52;3.72;;;31.20;76.80;;;;;;4986643;28;20424;-71
2023/06/12 08:54:36;;;;;;;12.68;4.13;;;31.10;75.10;;;;;;4913488;28;234274;-70
2023/06/12 08:57:03;;;;;;;;;;;31.40;75.20;;;;;;4984597;28;20131;-71
2023/06/12 08:59:29;;;;;;;12.18;3.78;;;31.50;73.90;;;;;;4942124;28;210031;-69
2023/06/12 09:01:57;;;;;;;14.43;3.97;;;31.60;76.20;;;;;;4960294;28;20070;-69
2023/06/12 09:04:31;;;;;;;11.70;3.80;;;32.30;76.20;;;;;;4933976;28;212512;-70
2023/06/12 09:07:01;;;;;;;11.77;3.70;;;32.50;75.40;;;;;;4969368;28;20054;-70
2023/06/12 09:09:40;;;;;;;13.75;3.55;;;32.70;73.80;;;;;;4941512;28;210402;-70
2023/06/12 09:12:12;;;;;;;11.73;3.90;;;33.10;73.10;;;;;;4988836;28;20068;-71
2023/06/12 09:14:40;;;;;;;11.75;3.60;;;33.30;72.60;;;;;;4921911;28;234156;-70
2023/06/12 09:17:09;;;;;;;11.68;3.47;;;33.00;72.80;;;;;;4970347;28;20059;-69
2023/06/12 09:19:36;;;;;;;11.95;3.80;;;33.50;73.00;;;;;;4916091;28;207274;-70
2023/06/12 09:22:04;;;;;;;10.35;3.83;;;33.70;71.30;;;;;;4974663;28;20059;-70
2023/06/12 09:24:30;;;;;;;12.05;3.88;;;33.70;70.90;;;;;;4927915;28;206009;-70
2023/06/12 09:26:56;;;;;;;10.20;3.60;;;33.40;70.40;;;;;;4975505;28;20051;-70
2023/06/12 09:29:27;;;;;;;10.57;3.47;;;33.70;70.10;;;;;;4929803;28;209634;-70
2023/06/12 09:31:53;;;;;;;15.60;3.88;;;34.20;69.30;;;;;;4994489;28;20053;-71
2023/06/12 09:34:19;;;;;;;11.63;3.60;;;34.70;68.90;;;;;;4918786;28;212908;-70
2023/06/12 09:36:47;;;;;;;10.07;3.60;;;34.80;68.60;;;;;;4983927;28;20054;-70
2023/06/12 09:39:26;;;;;;;12.00;3.70;;;34.80;68.00;;;;;;4959182;28;209617;-70
2023/06/12 09:41:54;;;;;;;9.75;3.58;;;34.80;67.50;;;;;;5000848;28;20536;-71
2023/06/12 09:44:25;;;;;;;13.93;3.75;;;35.10;67.70;;;;;;4938116;28;218731;-72
2023/06/12 09:46:51;;;;;;;10.02;3.60;;;35.30;67.40;;;;;;4977793;28;20062;-72
2023/06/12 09:49:23;;;;;;;10.15;3.40;;;35.40;66.40;;;;;;4940977;28;206981;-72
2023/06/12 09:51:51;;;;;;;9.95;3.63;;;35.60;66.90;;;;;;4982653;28;20618;-70
2023/06/12 09:54:19;;;;;;;10.57;3.38;;;36.20;67.50;;;;;;4914241;28;208138;-70
2023/06/12 09:56:47;;;;;;;11.68;4.28;;;36.50;66.60;;;;;;4997977;28;20054;-70
2023/06/12 09:59:17;;;;;;;9.02;3.40;;;36.80;66.00;;;;;;4956101;28;210737;-70
2023/06/12 10:01:45;;;;;;;;;;;36.80;65.70;;;;;;5003300;28;20451;-70
2023/06/12 10:04:13;;;;;;;11.07;3.50;;;36.80;64.70;;;;;;4953502;28;209044;-71
2023/06/12 10:06:40;;;;;;;9.15;3.40;;;36.60;64.90;;;;;;5003273;28;20038;-71
2023/06/12 10:09:08;;;;;;;15.18;3.55;;;36.60;64.80;;;;;;4937518;28;208883;-71
2023/06/12 10:11:37;;;;;;;10.85;3.50;;;37.00;64.50;;;;;;4972678;28;20059;-70
2023/06/12 10:14:03;;;;;;;11.70;3.53;;;37.30;63.40;;;;;;4927094;28;210451;-70
2023/06/12 10:16:31;;;;;;;10.20;3.30;;;37.60;63.40;;;;;;4974829;28;20055;-71
2023/06/12 10:18:58;;;;;;;13.55;3.80;;;37.80;62.10;;;;;;4924592;28;207246;-70
2023/06/12 10:21:27;;;;;;;10.98;3.65;;;38.20;60.60;;;;;;4974277;28;20522;-71
2023/06/12 10:23:54;;;;;;;8.45;3.35;;;38.20;60.60;;;;;;4913643;28;210571;-71
2023/06/12 10:26:22;;;;;;;13.27;3.47;;;38.40;60.30;;;;;;4972490;28;20496;-71
2023/06/12 10:28:48;;;;;;;11.00;3.50;;;38.00;60.00;;;;;;4926997;28;213835;-70
2023/06/12 10:31:18;;;;;;;10.73;3.42;;;37.60;59.60;;;;;;4992364;28;20042;-71
2023/06/12 10:34:12;;;;;;;13.65;4.10;;;38.00;58.90;;;;;;4939488;28;207255;-70
2023/06/12 10:36:43;;;;;;;11.55;3.75;;;37.80;60.40;;;;;;4979639;28;20051;-71
2023/06/12 10:39:17;;;;;;;10.55;3.60;;;38.20;61.00;;;;;;4947295;28;202704;-71
2023/06/12 10:41:59;;;;;;;8.93;3.55;;;38.40;59.00;;;;;;4974490;28;20062;-72
2023/06/12 10:44:46;;;;;;;10.30;3.58;;;38.40;56.90;;;;;;4919453;28;213395;-70
2023/06/12 10:47:23;;;;;;;10.52;3.45;;;38.20;58.30;;;;;;4990654;28;20415;-70
2023/06/12 10:49:56;;;;;;;10.77;3.60;;;38.30;58.40;;;;;;4950827;28;207890;-70
2023/06/12 10:52:23;;;;;;;9.00;3.50;;;38.00;57.10;;;;;;4984968;28;20058;-70
2023/06/12 10:55:09;;;;;;;15.45;4.20;;;37.30;57.80;;;;;;4926597;28;209966;-70
2023/06/12 10:57:35;;;;;;;9.10;3.58;;;37.80;58.40;;;;;;4988293;28;20046;-71
2023/06/12 11:00:04;;;;;;;10.10;3.92;;;38.40;57.40;;;;;;4962922;28;209247;-70
2023/06/12 11:02:31;;;;;;;10.27;3.70;;;38.80;57.50;;;;;;4984497;28;20062;-71
2023/06/12 11:05:03;;;;;;;9.02;3.55;;;39.10;57.90;;;;;;4951970;28;205967;-70
2023/06/12 11:07:31;;;;;;;10.70;3.63;;;39.40;54.10;;;;;;4990443;28;20054;-70
2023/06/12 11:09:57;;;;;;;10.60;3.42;;;39.40;53.60;;;;;;4955353;28;227419;-70
2023/06/12 11:12:23;;;;;;;9.60;4.22;;;39.10;53.80;;;;;;4989697;28;20066;-70
2023/06/12 11:14:50;;;;;;;9.27;3.50;;;38.30;55.10;;;;;;4933239;28;213288;-70
2023/06/12 11:17:16;;;;;;;9.45;4.00;;;37.90;54.70;;;;;;4975066;28;20054;-70
2023/06/12 11:19:42;;;;;;;11.80;3.90;;;37.80;55.70;;;;;;4947209;28;206854;-70
2023/06/12 11:22:08;;;;;;;12.50;4.00;;;37.80;54.70;;;;;;4991423;28;20411;-72
2023/06/12 11:24:35;;;;;;;12.02;4.03;;;37.90;53.60;;;;;;4931087;28;211814;-72
2023/06/12 11:27:02;;;;;;;8.40;3.60;;;38.00;54.30;;;;;;4987426;28;20061;-71
2023/06/12 11:29:35;;;;;;;12.27;3.80;;;38.10;54.10;;;;;;4954951;28;209308;-71
2023/06/12 11:32:04;;;;;;;8.98;3.83;;;38.60;53.10;;;;;;4992063;28;20518;-71
2023/06/12 11:34:36;;;;;;;10.15;3.50;;;38.20;52.10;;;;;;4942809;28;209970;-71
2023/06/12 11:37:19;;;;;;;10.30;3.58;;;38.20;52.70;;;;;;4965818;28;20054;-71
2023/06/12 11:39:46;;;;;;;9.52;3.85;;;38.80;54.10;;;;;;4927934;28;211024;-71
2023/06/12 11:42:12;;;;;;;7.68;3.30;;;38.80;52.50;;;;;;4970069;28;20405;-71
2023/06/12 11:44:39;;;;;;;10.80;4.00;;;39.40;53.60;;;;;;4934049;28;213964;-71
2023/06/12 11:47:06;;;;;;;8.45;3.70;;;39.60;52.80;;;;;;4977964;28;20054;-72
2023/06/12 11:49:34;;;;;;;9.35;3.75;;;39.60;51.40;;;;;;4921516;28;210245;-72
2023/06/12 11:52:01;;;;;;;9.20;4.03;;;39.90;50.80;;;;;;4970471;28;20069;-73
2023/06/12 11:54:27;;;;;;;9.13;3.75;;;40.10;49.70;;;;;;4914036;28;207911;-71
2023/06/12 11:56:53;;;;;;;8.98;4.00;;;39.60;49.90;;;;;;4965639;28;20061;-72
2023/06/12 11:59:25;;;;;;;9.75;4.05;;;39.30;50.00;;;;;;4924628;28;207483;-72
2023/06/12 12:01:52;;;;;;;14.70;4.50;;;39.20;50.80;;;;;;4971254;28;20062;-72
2023/06/12 12:04:18;;;;;;;11.30;4.15;;;39.10;50.00;;;;;;4916983;28;207492;-71
2023/06/12 12:06:49;;;;;;;10.35;4.07;;;39.00;49.60;;;;;;4972249;28;20467;-72
2023/06/12 12:09:23;;;;;;;10.15;4.10;;;39.00;49.70;;;;;;4916886;28;221962;-71
2023/06/12 12:11:49;;;;;;;10.18;4.35;;;39.30;48.80;;;;;;4972880;28;20054;-72
2023/06/12 12:14:15;;;;;;;10.18;4.28;;;39.40;49.20;;;;;;4912646;28;209523;-72
2023/06/12 12:16:43;;;;;;;9.55;3.90;;;40.00;49.40;;;;;;4980150;28;20042;-72
2023/06/12 12:19:27;;;;;;;7.88;3.83;;;40.00;49.30;;;;;;4934135;28;206909;-72
2023/06/12 12:21:55;;;;;;;16.00;4.00;;;39.60;48.60;;;;;;4986373;28;20050;-72
2023/06/12 12:24:21;;;;;;;9.43;4.07;;;38.20;48.50;;;;;;4939074;28;207158;-72
2023/06/12 12:26:50;;;;;;;11.02;3.95;;;37.10;49.10;;;;;;4976999;28;20054;-72
2023/06/12 12:29:18;;;;;;;8.98;4.20;;;36.20;50.00;;;;;;4929670;28;207656;-72
2023/06/12 12:31:44;;;;;;;10.50;4.38;;;36.40;50.30;;;;;;4990982;28;20042;-72
2023/06/12 12:34:10;;;;;;;10.55;4.40;;;36.80;49.70;;;;;;4935129;28;207834;-71
2023/06/12 12:36:39;;;;;;;9.82;4.35;;;37.30;50.00;;;;;;4968723;28;20070;-70
2023/06/12 12:39:06;;;;;;;9.02;4.20;;;37.70;50.00;;;;;;4925566;28;208644;-70